Springboro, Ohio
Current Conditions -  °F | °C
As of 8:53 AM on Friday 31 Oct 2014 (Local Time) from KMGY Reporting Station
Broken Clouds Broken Clouds  
Wind Chill: 41°   Ceiling: 7000
Heat Index: 41°   Visibility: 8mi
Dew Point: 39°   Wind: 3mph
Humidity: 93%   Direction: 190°S
Pressure: 29.95"   Gusts: NA
Location:  39.56°N, 84.23°W
Report Text: KMGY 311253Z AUTO 19003KT 8SM BKN070 BKN100 05/04 A2995 RMK AO2 SLP147 T00500039
Loading
Personal Weather Stations






























Interactive Weather Map
Tropical Storm Tracking
New forecast layout! Learn more

10-Day Weather Forecast

Advertisements
Track Severe Weather on mobile